HGS weather

Hastings Airport
Freetown, Western Area, Sierra Leone

Public forecast

Using degrees Celsius for public forecast. Weather courtesy of forecast.io.

METAR (pilot weather report)

Closest report is Lungi International Airport, 13.7 nm (25.5 km) NNW. Retrieved 2019/05/26 11:00 UTC (32 minutes ago):

GFLL 261100Z 27003KT 9999 BKN013 FEW027CB 27/23 Q1012 RMK CB-N-NE

TAF (pilot weather forecast)

Closest forecast is Lungi International Airport, 13.7 nm (25.5 km) NNW. Retrieved 2019/05/26 06:57 UTC (5 hours ago):

TAF TAF GFLL 260500Z 2606/2712 09005KT 9000 FEW0257B BKN010 PROB30 TEMPO 2606/2610 18007KT 7000 TSRA BKN009 TEMPO 2612/2617 26009KT 9999 SCT013 PROB30 TEMPO 2620/2700 27008KT TS SCT012